createdAt,value
2023-04-05T00:00:08.967Z,3.39
2023-04-05T00:01:08.959Z,3.37
2023-04-05T00:02:08.952Z,3.37
2023-04-05T00:03:09.213Z,3.37
2023-04-05T00:04:08.998Z,3.41
2023-04-05T00:05:08.942Z,3.41
2023-04-05T00:06:08.891Z,3.41
2023-04-05T00:07:08.902Z,3.41
2023-04-05T00:08:08.882Z,3.35
2023-04-05T00:09:08.898Z,3.37
2023-04-05T00:10:08.858Z,3.39
2023-04-05T00:11:08.862Z,3.33
2023-04-05T00:12:08.827Z,3.35
2023-04-05T00:13:08.827Z,3.33
2023-04-05T00:14:08.822Z,3.33
2023-04-05T00:15:08.801Z,3.33
2023-04-05T00:16:08.840Z,3.31
2023-04-05T00:17:10.870Z,3.31
2023-04-05T00:18:08.782Z,3.31
2023-04-05T00:19:08.786Z,3.28
2023-04-05T00:20:08.753Z,3.26
2023-04-05T00:21:08.761Z,3.28
2023-04-05T00:22:08.734Z,3.28
2023-04-05T00:23:08.737Z,3.26
2023-04-05T00:24:08.759Z,3.26
2023-04-05T00:25:08.707Z,3.28
2023-04-05T00:26:08.700Z,3.28
2023-04-05T00:27:08.692Z,3.26
2023-04-05T00:28:08.663Z,3.26
2023-04-05T00:29:08.656Z,3.26
2023-04-05T00:30:08.646Z,3.22
2023-04-05T00:31:08.670Z,3.19
2023-04-05T00:32:08.687Z,3.20
2023-04-05T00:33:08.693Z,3.23
2023-04-05T00:34:08.646Z,3.22
2023-04-05T00:35:08.604Z,3.22
2023-04-05T00:36:08.594Z,3.20
2023-04-05T00:37:08.589Z,3.22
2023-04-05T00:38:08.572Z,3.19
2023-04-05T00:39:08.570Z,3.20
2023-04-05T00:40:08.540Z,3.17
2023-04-05T00:41:08.534Z,3.16
2023-04-05T00:42:08.519Z,3.13
2023-04-05T00:43:08.517Z,3.07
2023-04-05T00:44:08.503Z,3.08
2023-04-05T00:45:08.503Z,3.13
2023-04-05T00:46:08.558Z,3.08
2023-04-05T00:47:08.471Z,3.05
2023-04-05T00:48:08.578Z,3.05
2023-04-05T00:49:08.453Z,3.05
2023-04-05T00:50:08.466Z,3.07
2023-04-05T00:51:08.448Z,3.05
2023-04-05T00:52:08.442Z,3.04
2023-04-05T00:53:08.410Z,3.05
2023-04-05T00:54:08.407Z,3.05
2023-04-05T00:55:08.401Z,3.07
2023-04-05T00:56:08.377Z,3.07
2023-04-05T00:57:08.370Z,3.05
2023-04-05T00:58:08.364Z,3.04
2023-04-05T00:59:08.413Z,2.99
2023-04-05T01:00:08.335Z,2.99
2023-04-05T01:01:08.350Z,2.95
2023-04-05T01:02:08.308Z,2.97
2023-04-05T01:03:08.306Z,2.97
2023-04-05T01:04:08.311Z,2.97
2023-04-05T01:05:08.303Z,2.94
2023-04-05T01:06:09.712Z,2.92
2023-04-05T01:07:08.283Z,2.92
2023-04-05T01:08:08.254Z,2.90
2023-04-05T01:09:08.254Z,2.87
2023-04-05T01:10:08.231Z,2.89
2023-04-05T01:11:08.220Z,2.90
2023-04-05T01:12:08.232Z,2.90
2023-04-05T01:13:08.196Z,2.90
2023-04-05T01:14:08.202Z,2.90
2023-04-05T01:15:08.185Z,2.92
2023-04-05T01:16:08.222Z,2.92
2023-04-05T01:17:08.174Z,2.92
2023-04-05T01:18:08.176Z,2.90
2023-04-05T01:19:08.142Z,2.87
2023-04-05T01:20:08.120Z,2.83
2023-04-05T01:21:08.122Z,2.83
2023-04-05T01:22:08.102Z,2.81
2023-04-05T01:23:08.112Z,2.83
2023-04-05T01:24:08.086Z,2.81
2023-04-05T01:25:08.071Z,2.76
2023-04-05T01:26:08.073Z,2.73
2023-04-05T01:27:08.068Z,2.73
2023-04-05T01:28:08.041Z,2.71
2023-04-05T01:29:08.068Z,2.69
2023-04-05T01:30:08.020Z,2.69
2023-04-05T01:31:08.014Z,2.69
2023-04-05T01:32:08.014Z,2.69
2023-04-05T01:33:08.093Z,2.68
2023-04-05T01:34:07.982Z,2.69
2023-04-05T01:35:07.987Z,2.71
2023-04-05T01:36:07.982Z,2.73
2023-04-05T01:37:14.724Z,2.71
2023-04-05T01:38:07.986Z,2.71
2023-04-05T01:39:07.948Z,2.74
2023-04-05T01:40:07.939Z,2.73
2023-04-05T01:41:07.950Z,2.74
2023-04-05T01:42:07.913Z,2.73
2023-04-05T01:43:07.909Z,2.73
2023-04-05T01:44:07.911Z,2.73
2023-04-05T01:45:07.878Z,2.69
2023-04-05T01:46:07.973Z,2.69
2023-04-05T01:47:07.877Z,2.71
2023-04-05T01:48:07.855Z,2.69
2023-04-05T01:49:07.838Z,2.68
2023-04-05T01:50:07.842Z,2.66
2023-04-05T01:51:07.838Z,2.66
2023-04-05T01:52:07.849Z,2.65
2023-04-05T01:53:07.835Z,2.63
2023-04-05T01:54:07.803Z,2.61
2023-04-05T01:55:07.777Z,2.59
2023-04-05T01:56:07.782Z,2.59
2023-04-05T01:57:07.787Z,2.58
2023-04-05T01:58:07.770Z,2.58
2023-04-05T01:59:07.886Z,2.56
2023-04-05T02:00:07.736Z,2.56
2023-04-05T02:01:07.775Z,2.59
2023-04-05T02:02:07.738Z,2.56
2023-04-05T02:03:07.774Z,2.56
2023-04-05T02:04:07.700Z,2.55
2023-04-05T02:05:07.696Z,2.55
2023-04-05T02:06:07.678Z,2.53
2023-04-05T02:07:07.714Z,2.51
2023-04-05T02:08:07.636Z,2.50
2023-04-05T02:09:07.649Z,2.48
2023-04-05T02:10:07.651Z,2.45
2023-04-05T02:11:07.631Z,2.43
2023-04-05T02:12:07.613Z,2.43
2023-04-05T02:13:07.593Z,2.43
2023-04-05T02:14:07.585Z,2.41
2023-04-05T02:15:07.596Z,2.41
2023-04-05T02:16:07.619Z,2.40
2023-04-05T02:17:07.626Z,2.40
2023-04-05T02:18:07.589Z,2.38
2023-04-05T02:19:07.538Z,2.38
2023-04-05T02:20:07.524Z,2.37
2023-04-05T02:21:07.548Z,2.37
2023-04-05T02:22:07.495Z,2.38
2023-04-05T02:23:07.544Z,2.40
2023-04-05T02:24:07.488Z,2.36
2023-04-05T02:25:07.470Z,2.33
2023-04-05T02:26:07.449Z,2.32
2023-04-05T02:27:07.476Z,2.32
2023-04-05T02:28:07.688Z,2.32
2023-04-05T02:29:07.435Z,2.32
2023-04-05T02:30:07.428Z,2.33
2023-04-05T02:31:07.423Z,2.33
2023-04-05T02:32:07.493Z,2.30
2023-04-05T02:33:07.417Z,2.30
2023-04-05T02:34:07.384Z,2.30
2023-04-05T02:35:07.449Z,2.32
2023-04-05T02:36:07.366Z,2.29
2023-04-05T02:37:07.360Z,2.29
2023-04-05T02:38:07.355Z,2.29
2023-04-05T02:39:07.334Z,2.26
2023-04-05T02:40:07.333Z,2.26
2023-04-05T02:41:07.316Z,2.27
2023-04-05T02:42:07.578Z,2.26
2023-04-05T02:43:07.292Z,2.22
2023-04-05T02:44:07.276Z,2.23
2023-04-05T02:45:07.388Z,2.22
2023-04-05T02:46:07.340Z,2.20
2023-04-05T02:47:07.272Z,2.23
2023-04-05T02:48:07.383Z,2.20
2023-04-05T02:49:07.231Z,2.18
2023-04-05T02:50:07.221Z,2.19
2023-04-05T02:51:07.215Z,2.18
2023-04-05T02:52:07.212Z,2.15
2023-04-05T02:53:07.245Z,2.15
2023-04-05T02:54:07.177Z,2.15
2023-04-05T02:55:07.168Z,2.12
2023-04-05T02:56:07.154Z,2.11
2023-04-05T02:57:07.144Z,2.09
2023-04-05T02:58:07.258Z,2.05
2023-04-05T02:59:07.170Z,2.07
2023-04-05T03:00:07.138Z,2.07
2023-04-05T03:01:07.177Z,2.08
2023-04-05T03:02:07.102Z,2.08
2023-04-05T03:03:07.144Z,2.07
2023-04-05T03:04:07.116Z,2.07
2023-04-05T03:05:07.069Z,2.08
2023-04-05T03:06:07.044Z,2.08
2023-04-05T03:07:07.120Z,2.08
2023-04-05T03:08:07.042Z,2.08
2023-04-05T03:09:07.044Z,2.04
2023-04-05T03:10:06.997Z,2.04
2023-04-05T03:11:06.999Z,2.04
2023-04-05T03:12:06.994Z,2.02
2023-04-05T03:13:06.986Z,2.01
2023-04-05T03:14:07.002Z,2.01
2023-04-05T03:15:06.960Z,2.00
2023-04-05T03:16:06.958Z,1.98
2023-04-05T03:17:06.998Z,1.98
2023-04-05T03:18:06.911Z,1.95
2023-04-05T03:19:06.913Z,1.92
2023-04-05T03:20:06.909Z,1.92
2023-04-05T03:21:06.908Z,1.90
2023-04-05T03:22:06.872Z,1.88
2023-04-05T03:23:06.865Z,1.86
2023-04-05T03:24:06.855Z,1.85
2023-04-05T03:25:06.867Z,1.83
2023-04-05T03:26:06.855Z,1.77
2023-04-05T03:27:06.869Z,1.75
2023-04-05T03:28:06.810Z,1.74
2023-04-05T03:29:06.801Z,1.74
2023-04-05T03:30:06.793Z,1.74
2023-04-05T03:31:06.831Z,1.75
2023-04-05T03:32:06.803Z,1.75
2023-04-05T03:33:06.782Z,1.74
2023-04-05T03:34:06.746Z,1.74
2023-04-05T03:35:06.740Z,1.74
2023-04-05T03:36:06.752Z,1.74
2023-04-05T03:37:06.735Z,1.71
2023-04-05T03:38:06.742Z,1.72
2023-04-05T03:39:06.716Z,1.70
2023-04-05T03:40:06.697Z,1.67
2023-04-05T03:41:06.703Z,1.67
2023-04-05T03:42:06.713Z,1.67
2023-04-05T03:43:06.662Z,1.67
2023-04-05T03:44:06.660Z,1.68
2023-04-05T03:45:06.688Z,1.64
2023-04-05T03:46:06.716Z,1.64
2023-04-05T03:47:06.625Z,1.61
2023-04-05T03:48:06.654Z,1.60
2023-04-05T03:49:06.616Z,1.57
2023-04-05T03:50:06.589Z,1.56
2023-04-05T03:51:06.589Z,1.57
2023-04-05T03:52:06.622Z,1.60
2023-04-05T03:53:07.518Z,1.57
2023-04-05T03:54:06.567Z,1.54
2023-04-05T03:55:06.554Z,1.52
2023-04-05T03:56:06.514Z,1.49
2023-04-05T03:57:06.592Z,1.47
2023-04-05T03:58:06.506Z,1.49
2023-04-05T03:59:06.521Z,1.47
2023-04-05T04:00:06.491Z,1.44
2023-04-05T04:01:06.473Z,1.44
2023-04-05T04:02:06.535Z,1.43
2023-04-05T04:03:06.471Z,1.43
2023-04-05T04:04:06.442Z,1.42
2023-04-05T04:05:06.509Z,1.38
2023-04-05T04:06:06.467Z,1.39
2023-04-05T04:07:06.421Z,1.38
2023-04-05T04:08:06.432Z,1.38
2023-04-05T04:09:08.084Z,1.34
2023-04-05T04:10:06.381Z,1.35
2023-04-05T04:11:06.366Z,1.34
2023-04-05T04:12:06.365Z,1.32
2023-04-05T04:13:06.479Z,1.32
2023-04-05T04:14:06.578Z,1.31
2023-04-05T04:15:06.335Z,1.32
2023-04-05T04:16:06.368Z,1.29
2023-04-05T04:17:06.353Z,1.29
2023-04-05T04:18:06.333Z,1.28
2023-04-05T04:19:06.334Z,1.28
2023-04-05T04:20:06.268Z,1.28
2023-04-05T04:21:06.266Z,1.26
2023-04-05T04:22:06.261Z,1.28
2023-04-05T04:23:06.246Z,1.28
2023-04-05T04:24:06.270Z,1.28
2023-04-05T04:25:06.223Z,1.26
2023-04-05T04:26:06.214Z,1.24
2023-04-05T04:27:06.189Z,1.20
2023-04-05T04:28:06.212Z,1.18
2023-04-05T04:29:06.182Z,1.18
2023-04-05T04:30:06.166Z,1.18
2023-04-05T04:31:06.147Z,1.13
2023-04-05T04:32:06.324Z,1.13
2023-04-05T04:33:08.720Z,1.11
2023-04-05T04:34:06.150Z,1.07
2023-04-05T04:35:06.129Z,1.04
2023-04-05T04:36:06.153Z,1.06
2023-04-05T04:37:06.114Z,1.04
2023-04-05T04:38:06.090Z,1.00
2023-04-05T04:39:06.117Z,1.00
2023-04-05T04:40:06.097Z,0.96
2023-04-05T04:41:06.085Z,0.98
2023-04-05T04:42:06.075Z,0.98
2023-04-05T04:43:06.037Z,0.96
2023-04-05T04:44:06.027Z,0.98
2023-04-05T04:45:06.016Z,0.96
2023-04-05T04:46:06.062Z,0.95
2023-04-05T04:47:06.000Z,0.93
2023-04-05T04:48:05.977Z,0.96
2023-04-05T04:49:06.066Z,0.95
2023-04-05T04:50:05.957Z,0.95
2023-04-05T04:51:05.960Z,0.92
2023-04-05T04:52:05.940Z,0.93
2023-04-05T04:53:05.936Z,0.92
2023-04-05T04:54:05.925Z,0.90
2023-04-05T04:55:05.918Z,0.92
2023-04-05T04:56:05.905Z,0.92
2023-04-05T04:57:05.904Z,0.89
2023-04-05T04:58:05.907Z,0.88
2023-04-05T04:59:05.912Z,0.86
2023-04-05T05:00:05.879Z,0.88
2023-04-05T05:01:05.876Z,0.88
2023-04-05T05:02:05.843Z,0.88
2023-04-05T05:03:05.866Z,0.86
2023-04-05T05:04:05.874Z,0.89
2023-04-05T05:05:05.834Z,0.90
2023-04-05T05:06:05.809Z,0.92
2023-04-05T05:07:05.795Z,0.95
2023-04-05T05:08:05.843Z,0.93
2023-04-05T05:09:05.762Z,0.93
2023-04-05T05:10:05.783Z,0.92
2023-04-05T05:11:05.738Z,0.93
2023-04-05T05:12:05.748Z,0.96
2023-04-05T05:13:05.746Z,0.98
2023-04-05T05:14:05.721Z,0.98
2023-04-05T05:15:05.719Z,0.99
2023-04-05T05:16:05.691Z,0.99
2023-04-05T05:17:05.706Z,0.99
2023-04-05T05:18:05.783Z,0.99
2023-04-05T05:19:05.681Z,1.00
2023-04-05T05:20:05.682Z,1.00
2023-04-05T05:21:05.648Z,1.00
2023-04-05T05:22:05.638Z,0.98
2023-04-05T05:23:05.638Z,0.98
2023-04-05T05:24:05.629Z,0.99
2023-04-05T05:25:05.619Z,1.00
2023-04-05T05:26:05.600Z,1.02
2023-04-05T05:27:05.587Z,1.02
2023-04-05T05:28:05.629Z,1.04
2023-04-05T05:29:05.587Z,1.04
2023-04-05T05:30:05.574Z,1.04
2023-04-05T05:31:05.571Z,1.04
2023-04-05T05:32:05.534Z,1.04
2023-04-05T05:33:05.624Z,1.02
2023-04-05T05:34:05.532Z,1.04
2023-04-05T05:35:05.511Z,1.07
2023-04-05T05:36:05.494Z,1.10
2023-04-05T05:37:05.472Z,1.08
2023-04-05T05:38:07.099Z,1.07
2023-04-05T05:39:05.462Z,1.07
2023-04-05T05:40:05.488Z,1.08
2023-04-05T05:41:05.447Z,1.07
2023-04-05T05:42:05.456Z,1.08
2023-04-05T05:43:05.429Z,1.08
2023-04-05T05:44:05.407Z,1.08
2023-04-05T05:45:05.407Z,1.10
2023-04-05T05:46:05.408Z,1.11
2023-04-05T05:47:05.366Z,1.11
2023-04-05T05:48:05.533Z,1.10
2023-04-05T05:49:05.366Z,1.13
2023-04-05T05:50:05.344Z,1.13
2023-04-05T05:51:05.322Z,1.11
2023-04-05T05:52:05.334Z,1.13
2023-04-05T05:53:05.304Z,1.13
2023-04-05T05:54:05.527Z,1.14
2023-04-05T05:55:05.736Z,1.14
2023-04-05T05:56:05.688Z,1.16
2023-04-05T05:57:05.372Z,1.16
2023-04-05T05:58:05.450Z,1.16
2023-04-05T05:59:05.410Z,1.17
2023-04-05T06:00:05.541Z,1.18
2023-04-05T06:01:05.487Z,1.24
2023-04-05T06:02:05.227Z,1.24
2023-04-05T06:03:05.294Z,1.25
2023-04-05T06:04:05.517Z,1.26
2023-04-05T06:05:05.202Z,1.26
2023-04-05T06:06:05.361Z,1.28
2023-04-05T06:07:05.371Z,1.32
2023-04-05T06:08:05.171Z,1.34
2023-04-05T06:09:05.354Z,1.34
2023-04-05T06:10:05.138Z,1.35
2023-04-05T06:11:05.572Z,1.36
2023-04-05T06:12:05.591Z,1.36
2023-04-05T06:13:05.490Z,1.36
2023-04-05T06:14:05.116Z,1.39
2023-04-05T06:15:05.109Z,1.42
2023-04-05T06:16:05.838Z,1.43
2023-04-05T06:17:05.114Z,1.46
2023-04-05T06:18:05.530Z,1.46
2023-04-05T06:19:05.063Z,1.47
2023-04-05T06:20:05.418Z,1.49
2023-04-05T06:21:05.050Z,1.49
2023-04-05T06:22:05.023Z,1.50
2023-04-05T06:23:05.009Z,1.50
2023-04-05T06:24:05.024Z,1.52
2023-04-05T06:25:04.978Z,1.52
2023-04-05T06:26:04.983Z,1.54
2023-04-05T06:27:04.972Z,1.54
2023-04-05T06:28:05.118Z,1.57
2023-04-05T06:29:04.975Z,1.56
2023-04-05T06:30:04.944Z,1.60
2023-04-05T06:31:04.916Z,1.61
2023-04-05T06:32:04.945Z,1.64
2023-04-05T06:33:04.918Z,1.64
2023-04-05T06:34:04.890Z,1.65
2023-04-05T06:35:04.880Z,1.68
2023-04-05T06:36:04.911Z,1.71
2023-04-05T06:37:04.892Z,1.72
2023-04-05T06:38:04.851Z,1.74
2023-04-05T06:39:04.840Z,1.75
2023-04-05T06:40:04.840Z,1.77
2023-04-05T06:41:04.835Z,1.79
2023-04-05T06:42:04.826Z,1.79
2023-04-05T06:43:04.812Z,1.81
2023-04-05T06:44:04.789Z,1.81
2023-04-05T06:45:04.795Z,1.82
2023-04-05T06:46:04.797Z,1.83
2023-04-05T06:47:04.788Z,1.83
2023-04-05T06:48:04.795Z,1.85
2023-04-05T06:49:04.724Z,1.86
2023-04-05T06:50:04.732Z,1.88
2023-04-05T06:51:04.714Z,1.89
2023-04-05T06:52:04.816Z,1.93
2023-04-05T06:53:04.722Z,1.95
2023-04-05T06:54:04.695Z,2.00
2023-04-05T06:55:04.667Z,2.01
2023-04-05T06:56:04.794Z,2.01
2023-04-05T06:57:04.635Z,2.02
2023-04-05T06:58:04.661Z,2.04
2023-04-05T06:59:04.728Z,2.05
2023-04-05T07:00:04.626Z,2.05
2023-04-05T07:01:04.655Z,2.05
2023-04-05T07:02:04.616Z,2.08
2023-04-05T07:03:04.626Z,2.09
2023-04-05T07:04:04.619Z,2.12
2023-04-05T07:05:04.558Z,2.12
2023-04-05T07:06:04.554Z,2.15
2023-04-05T07:07:04.550Z,2.18
2023-04-05T07:08:04.546Z,2.20
2023-04-05T07:09:04.530Z,2.20
2023-04-05T07:10:04.511Z,2.23
2023-04-05T07:11:04.504Z,2.25
2023-04-05T07:12:04.500Z,2.27
2023-04-05T07:13:04.489Z,2.30
2023-04-05T07:14:04.504Z,2.32
2023-04-05T07:15:04.454Z,2.36
2023-04-05T07:16:04.510Z,2.37
2023-04-05T07:17:04.441Z,2.38
2023-04-05T07:18:04.525Z,2.41
2023-04-05T07:19:04.427Z,2.43
2023-04-05T07:20:04.426Z,2.45
2023-04-05T07:21:04.411Z,2.47
2023-04-05T07:22:04.395Z,2.48
2023-04-05T07:23:04.370Z,2.53
2023-04-05T07:24:04.391Z,2.55
2023-04-05T07:25:04.365Z,2.58
2023-04-05T07:26:04.481Z,2.61
2023-04-05T07:27:04.351Z,2.65
2023-04-05T07:28:04.342Z,2.66
2023-04-05T07:29:04.324Z,2.69
2023-04-05T07:30:04.300Z,2.71
2023-04-05T07:31:04.299Z,2.74
2023-04-05T07:32:04.310Z,2.76
2023-04-05T07:33:04.565Z,2.77
2023-04-05T07:34:04.258Z,2.80
2023-04-05T07:35:04.261Z,2.84
2023-04-05T07:36:04.304Z,2.86
2023-04-05T07:37:04.225Z,2.90
2023-04-05T07:38:04.273Z,2.94
2023-04-05T07:39:04.216Z,2.95
2023-04-05T07:40:04.222Z,3.01
2023-04-05T07:41:04.189Z,3.02
2023-04-05T07:42:04.198Z,3.07
2023-04-05T07:43:04.182Z,3.12
2023-04-05T07:44:04.177Z,3.16
2023-04-05T07:45:04.162Z,3.19
2023-04-05T07:46:04.273Z,3.23
2023-04-05T07:47:04.148Z,3.26
2023-04-05T07:48:04.145Z,3.28
2023-04-05T07:49:04.099Z,3.33
2023-04-05T07:50:04.216Z,3.35
2023-04-05T07:51:04.120Z,3.41
2023-04-05T07:52:04.154Z,3.42
2023-04-05T07:53:04.110Z,3.45
2023-04-05T07:54:04.049Z,3.50
2023-04-05T07:55:04.070Z,3.52
2023-04-05T07:56:04.099Z,3.56
2023-04-05T07:57:04.033Z,3.59
2023-04-05T07:58:04.025Z,3.62
2023-04-05T07:59:04.059Z,3.64
2023-04-05T08:00:04.025Z,3.72
2023-04-05T08:01:04.054Z,3.74
2023-04-05T08:02:13.844Z,3.78
2023-04-05T08:03:05.133Z,3.80
2023-04-05T08:04:04.034Z,3.82
2023-04-05T08:05:04.726Z,3.84
2023-04-05T08:06:04.011Z,3.84
2023-04-05T08:07:04.928Z,3.89
2023-04-05T08:08:03.971Z,3.92
2023-04-05T08:09:03.992Z,3.96
2023-04-05T08:10:03.956Z,3.98
2023-04-05T08:11:04.678Z,4.00
2023-04-05T08:12:03.956Z,4.04
2023-04-05T08:13:03.859Z,4.06
2023-04-05T08:14:03.845Z,4.07
2023-04-05T08:15:03.842Z,4.10
2023-04-05T08:16:03.871Z,4.11
2023-04-05T08:17:03.827Z,4.14
2023-04-05T08:18:03.848Z,4.17
2023-04-05T08:19:03.809Z,4.20
2023-04-05T08:20:03.799Z,4.21
2023-04-05T08:21:03.814Z,4.25
2023-04-05T08:22:03.770Z,4.26
2023-04-05T08:23:03.765Z,4.29
2023-04-05T08:24:03.744Z,4.31
2023-04-05T08:25:03.767Z,4.35
2023-04-05T08:26:03.747Z,4.36
2023-04-05T08:27:03.719Z,4.39
2023-04-05T08:28:03.701Z,4.47
2023-04-05T08:29:03.706Z,4.53
2023-04-05T08:30:03.710Z,4.59
2023-04-05T08:31:03.689Z,4.65
2023-04-05T08:32:03.748Z,4.67
2023-04-05T08:33:03.716Z,4.69
2023-04-05T08:34:03.645Z,4.71
2023-04-05T08:35:03.641Z,4.74
2023-04-05T08:36:03.714Z,4.77
2023-04-05T08:37:03.664Z,4.77
2023-04-05T08:38:03.600Z,4.79
2023-04-05T08:39:03.614Z,4.80
2023-04-05T08:40:03.570Z,4.83
2023-04-05T08:41:03.560Z,4.86
2023-04-05T08:42:03.593Z,4.88
2023-04-05T08:43:03.540Z,4.94
2023-04-05T08:44:03.552Z,4.99
2023-04-05T08:45:03.530Z,5.04
2023-04-05T08:46:03.606Z,5.08
2023-04-05T08:47:03.507Z,5.14
2023-04-05T08:48:03.563Z,5.19
2023-04-05T08:49:03.534Z,5.23
2023-04-05T08:50:03.474Z,5.27
2023-04-05T08:51:03.462Z,5.35
2023-04-05T08:52:03.469Z,5.38
2023-04-05T08:53:03.445Z,5.42
2023-04-05T08:54:03.468Z,5.45
2023-04-05T08:55:03.477Z,5.51
2023-04-05T08:56:03.428Z,5.55
2023-04-05T08:57:03.524Z,5.58
2023-04-05T08:58:03.393Z,5.63
2023-04-05T08:59:03.434Z,5.65
2023-04-05T09:00:03.401Z,5.69
2023-04-05T09:01:03.384Z,5.73
2023-04-05T09:02:03.358Z,5.74
2023-04-05T09:03:03.546Z,5.75
2023-04-05T09:04:03.348Z,5.78
2023-04-05T09:05:03.339Z,5.80
2023-04-05T09:06:03.316Z,5.81
2023-04-05T09:07:03.309Z,5.85
2023-04-05T09:08:03.279Z,5.88
2023-04-05T09:09:03.273Z,5.92
2023-04-05T09:10:03.298Z,5.95
2023-04-05T09:11:03.256Z,5.96
2023-04-05T09:12:03.253Z,6.01
2023-04-05T09:13:03.251Z,6.06
2023-04-05T09:14:03.221Z,6.14
2023-04-05T09:15:03.222Z,6.19
2023-04-05T09:16:03.237Z,6.24
2023-04-05T09:17:03.247Z,6.30
2023-04-05T09:18:07.456Z,6.33
2023-04-05T09:19:04.198Z,6.40
2023-04-05T09:20:03.155Z,6.45
2023-04-05T09:21:03.179Z,6.48
2023-04-05T09:22:03.156Z,6.54
2023-04-05T09:23:03.165Z,6.55
2023-04-05T09:24:03.113Z,6.58
2023-04-05T09:25:03.120Z,6.61
2023-04-05T09:26:03.100Z,6.60
2023-04-05T09:27:03.085Z,6.61
2023-04-05T09:28:03.089Z,6.63
2023-04-05T09:29:03.076Z,6.63
2023-04-05T09:30:03.050Z,6.63
2023-04-05T09:31:03.103Z,6.64
2023-04-05T09:32:03.042Z,6.68
2023-04-05T09:33:03.143Z,6.68
2023-04-05T09:34:03.070Z,6.69
2023-04-05T09:35:03.065Z,6.72
2023-04-05T09:36:03.018Z,6.73
2023-04-05T09:37:03.015Z,6.75
2023-04-05T09:38:02.969Z,6.76
2023-04-05T09:39:02.975Z,6.78
2023-04-05T09:40:02.972Z,6.82
2023-04-05T09:41:02.943Z,6.87
2023-04-05T09:42:02.949Z,6.93
2023-04-05T09:43:02.911Z,6.96
2023-04-05T09:44:02.922Z,7.00
2023-04-05T09:45:03.368Z,7.04
2023-04-05T09:46:02.919Z,7.08
2023-04-05T09:47:02.888Z,7.12
2023-04-05T09:48:02.904Z,7.19
2023-04-05T09:49:02.849Z,7.24
2023-04-05T09:50:02.842Z,7.30
2023-04-05T09:51:10.303Z,7.34
2023-04-05T09:52:03.813Z,7.44
2023-04-05T09:53:02.834Z,7.48
2023-04-05T09:54:02.815Z,7.51
2023-04-05T09:55:02.791Z,7.52
2023-04-05T09:56:02.786Z,7.55
2023-04-05T09:57:02.773Z,7.57
2023-04-05T09:58:02.750Z,7.57
2023-04-05T09:59:02.793Z,7.58
2023-04-05T10:00:02.738Z,7.60
2023-04-05T10:01:13.885Z,7.63
2023-04-05T10:02:04.698Z,7.69
2023-04-05T10:03:02.759Z,7.73
2023-04-05T10:04:02.961Z,7.76
2023-04-05T10:05:02.725Z,7.81
2023-04-05T10:06:02.678Z,7.86
2023-04-05T10:07:02.695Z,7.92
2023-04-05T10:08:02.652Z,7.99
2023-04-05T10:09:02.677Z,8.03
2023-04-05T10:10:02.639Z,8.10
2023-04-05T10:11:03.576Z,8.14
2023-04-05T10:12:02.613Z,8.18
2023-04-05T10:13:02.607Z,8.21
2023-04-05T10:14:02.602Z,8.22
2023-04-05T10:15:03.154Z,8.24
2023-04-05T10:16:02.645Z,8.22
2023-04-05T10:17:04.030Z,8.24
2023-04-05T10:18:02.665Z,8.24
2023-04-05T10:19:02.613Z,8.28
2023-04-05T10:20:02.545Z,8.31
2023-04-05T10:21:02.526Z,8.36
2023-04-05T10:22:02.512Z,8.37
2023-04-05T10:23:02.483Z,8.42
2023-04-05T10:24:02.496Z,8.46
2023-04-05T10:25:02.472Z,8.50
2023-04-05T10:26:02.478Z,8.54
2023-04-05T10:27:02.463Z,8.55
2023-04-05T10:28:02.444Z,8.55
2023-04-05T10:29:02.426Z,8.58
2023-04-05T10:30:02.398Z,8.58
2023-04-05T10:31:02.405Z,8.61
2023-04-05T10:32:02.395Z,8.65
2023-04-05T10:33:02.612Z,8.68
2023-04-05T10:34:02.428Z,8.70
2023-04-05T10:35:02.398Z,8.71
2023-04-05T10:36:02.373Z,8.70
2023-04-05T10:37:02.360Z,8.68
2023-04-05T10:38:02.329Z,8.68
2023-04-05T10:39:02.407Z,8.70
2023-04-05T10:40:02.322Z,8.65
2023-04-05T10:41:02.333Z,8.65
2023-04-05T10:42:02.301Z,8.61
2023-04-05T10:43:02.294Z,8.63
2023-04-05T10:44:11.792Z,8.65
2023-04-05T10:45:03.241Z,8.65
2023-04-05T10:46:02.286Z,8.65
2023-04-05T10:47:02.265Z,8.67
2023-04-05T10:48:02.384Z,8.71
2023-04-05T10:49:02.304Z,8.79
2023-04-05T10:50:02.236Z,8.85
2023-04-05T10:51:02.188Z,8.89
2023-04-05T10:52:02.179Z,8.93
2023-04-05T10:53:02.203Z,8.83
2023-04-05T10:54:02.192Z,8.82
2023-04-05T10:55:02.168Z,8.85
2023-04-05T10:56:02.222Z,8.88
2023-04-05T10:57:02.136Z,8.93
2023-04-05T10:58:02.108Z,9.00
2023-04-05T10:59:02.242Z,9.06
2023-04-05T11:00:02.130Z,9.13
2023-04-05T11:01:02.160Z,9.15
2023-04-05T11:02:02.200Z,9.20
2023-04-05T11:03:02.092Z,9.20
2023-04-05T11:04:02.104Z,9.19
2023-04-05T11:05:02.053Z,9.16
2023-04-05T11:06:02.022Z,9.12
2023-04-05T11:07:02.023Z,9.13
2023-04-05T11:08:02.013Z,9.13
2023-04-05T11:09:02.068Z,9.20
2023-04-05T11:10:02.085Z,9.23
2023-04-05T11:11:01.984Z,9.27
2023-04-05T11:12:02.038Z,9.34
2023-04-05T11:13:01.962Z,9.38
2023-04-05T11:14:01.991Z,9.38
2023-04-05T11:15:02.006Z,9.41
2023-04-05T11:16:02.648Z,9.45
2023-04-05T11:17:02.047Z,9.42
2023-04-05T11:18:02.939Z,9.44
2023-04-05T11:19:01.941Z,9.50
2023-04-05T11:20:02.637Z,9.62
2023-04-05T11:21:01.919Z,9.67
2023-04-05T11:22:02.908Z,9.71
2023-04-05T11:23:01.869Z,9.70
2023-04-05T11:24:02.039Z,9.73
2023-04-05T11:25:01.851Z,9.73
2023-04-05T11:26:01.987Z,9.75
2023-04-05T11:27:01.841Z,9.80
2023-04-05T11:28:02.229Z,9.86
2023-04-05T11:29:01.807Z,9.93
2023-04-05T11:30:02.884Z,9.98
2023-04-05T11:31:01.800Z,9.98
2023-04-05T11:32:02.359Z,9.98
2023-04-05T11:33:01.844Z,9.95
2023-04-05T11:34:02.902Z,9.96
2023-04-05T11:35:01.734Z,10.04
2023-04-05T11:36:02.449Z,10.13
2023-04-05T11:37:01.743Z,10.17
2023-04-05T11:38:01.718Z,10.26
2023-04-05T11:39:01.686Z,10.28
2023-04-05T11:40:02.417Z,10.32
2023-04-05T11:41:01.687Z,10.39
2023-04-05T11:42:02.386Z,10.44
2023-04-05T11:43:01.662Z,10.54
2023-04-05T11:44:02.356Z,10.62
2023-04-05T11:45:01.662Z,10.68
2023-04-05T11:46:02.630Z,10.75
2023-04-05T11:47:01.621Z,10.84
2023-04-05T11:48:02.577Z,10.95
2023-04-05T11:49:01.591Z,11.03
2023-04-05T11:50:01.576Z,11.13
2023-04-05T11:51:01.583Z,11.23
2023-04-05T11:52:01.571Z,11.31
2023-04-05T11:53:01.565Z,11.38
2023-04-05T11:54:01.555Z,11.45
2023-04-05T11:55:03.472Z,11.57
2023-04-05T11:56:01.562Z,11.67
2023-04-05T11:57:01.646Z,11.78
2023-04-05T11:58:01.539Z,11.85
2023-04-05T11:59:01.588Z,11.93
2023-04-05T12:00:01.486Z,11.94
2023-04-05T12:01:01.502Z,11.88
2023-04-05T12:02:01.455Z,11.87
2023-04-05T12:03:01.545Z,11.81
2023-04-05T12:04:01.656Z,11.82
2023-04-05T12:05:01.460Z,11.84
2023-04-05T12:06:01.424Z,11.94
2023-04-05T12:07:01.405Z,12.08
2023-04-05T12:08:01.435Z,12.21
2023-04-05T12:09:01.359Z,12.25
2023-04-05T12:10:01.362Z,12.34
2023-04-05T12:11:01.423Z,12.41
2023-04-05T12:12:02.156Z,12.52
2023-04-05T12:13:01.338Z,12.62
2023-04-05T12:14:01.382Z,12.76
2023-04-05T12:15:01.316Z,12.91
2023-04-05T12:16:01.350Z,13.12
2023-04-05T12:17:01.496Z,13.38
2023-04-05T12:18:01.332Z,13.63
2023-04-05T12:19:01.267Z,13.75
2023-04-05T12:20:01.484Z,13.99
2023-04-05T12:21:01.245Z,14.60
2023-04-05T12:22:01.218Z,15.30
2023-04-05T12:23:01.231Z,15.78
2023-04-05T12:23:41.762Z,16.13
2023-04-05T12:24:41.766Z,16.62
2023-04-05T12:25:41.922Z,16.85
2023-04-05T12:26:41.881Z,17.17
2023-04-05T12:27:41.732Z,17.58
2023-04-05T12:28:41.726Z,17.68
2023-04-05T12:29:41.782Z,18.02
2023-04-05T12:30:41.688Z,18.25
2023-04-05T12:31:41.735Z,18.57
2023-04-05T12:32:41.695Z,18.96
2023-04-05T12:33:41.652Z,19.31
2023-04-05T12:34:41.663Z,19.98
2023-04-05T12:35:41.858Z,20.71
2023-04-05T12:36:41.620Z,21.46
2023-04-05T12:37:41.752Z,22.36
2023-04-05T12:38:41.611Z,23.01
2023-04-05T12:39:41.595Z,23.72
2023-04-05T12:40:41.583Z,24.37
2023-04-05T12:41:41.574Z,24.97
2023-04-05T12:42:41.587Z,25.31
2023-04-05T12:43:41.544Z,25.60
2023-04-05T12:44:41.562Z,25.86
2023-04-05T12:45:42.169Z,26.12
2023-04-05T12:46:41.546Z,26.35
2023-04-05T12:47:41.552Z,26.36
2023-04-05T12:48:41.498Z,26.17
2023-04-05T12:49:41.495Z,26.16
2023-04-05T12:50:41.470Z,25.91
2023-04-05T12:51:41.469Z,26.03
2023-04-05T12:52:41.476Z,26.20
2023-04-05T12:53:41.456Z,26.19
2023-04-05T12:54:41.434Z,26.08
2023-04-05T12:55:41.619Z,26.20
2023-04-05T12:56:41.433Z,26.61
2023-04-05T12:57:41.409Z,26.72
2023-04-05T12:58:41.406Z,26.56
2023-04-05T12:59:41.404Z,26.79
2023-04-05T13:00:41.360Z,26.42
2023-04-05T13:01:41.370Z,26.36
2023-04-05T13:02:41.625Z,26.66
2023-04-05T13:03:41.459Z,26.73
2023-04-05T13:04:41.364Z,26.42
2023-04-05T13:05:41.491Z,26.13
2023-04-05T13:06:41.323Z,26.21
2023-04-05T13:07:41.299Z,26.46
2023-04-05T13:08:41.297Z,26.56
2023-04-05T13:09:41.288Z,26.61
2023-04-05T13:10:41.316Z,26.57
2023-04-05T13:11:41.265Z,26.66
2023-04-05T13:12:41.251Z,26.32
2023-04-05T13:13:41.255Z,25.89
2023-04-05T13:14:41.228Z,25.49